Time;durP1;ratioP1;P1;durP2;ratioP2;P2;SDS_P1;SDS_P2;PMS_P1;PMS_P2;Temp;Humidity;BMP_temperature;BMP_pressure;BME280_temperature;BME280_humidity;BME280_pressure;Samples;Min_cycle;Max_cycle;Signal;HPM_P1;HPM_P2
2023/11/13 00:00:14;;;;;;;13.53;12.83;;;7.80;99.90;;;;;;4919252;29;20485;-76
2023/11/13 00:02:42;;;;;;;13.13;12.50;;;7.80;86.50;;;;;;4938081;28;20461;-79
2023/11/13 00:05:11;;;;;;;13.27;12.70;;;7.80;99.90;;;;;;4922782;29;20470;-80
2023/11/13 00:07:39;;;;;;;13.30;12.60;;;7.80;99.90;;;;;;4917405;29;20489;-79
2023/11/13 00:10:08;;;;;;;12.97;12.37;;;7.80;99.90;;;;;;4922908;29;20462;-78
2023/11/13 00:12:37;;;;;;;13.67;12.97;;;7.90;99.90;;;;;;4916139;29;20450;-79
2023/11/13 00:15:07;;;;;;;14.50;13.50;;;8.00;99.90;;;;;;4917275;29;20561;-81
2023/11/13 00:17:36;;;;;;;13.80;13.00;;;8.00;99.90;;;;;;4921432;29;20487;-78
2023/11/13 00:20:05;;;;;;;13.80;13.00;;;8.00;99.90;;;;;;4919766;29;21015;-78
2023/11/13 00:22:33;;;;;;;13.00;12.50;;;8.10;99.90;;;;;;4925113;29;20500;-77
2023/11/13 00:25:02;;;;;;;13.37;12.67;;;8.10;99.90;;;;;;4919076;29;20465;-77
2023/11/13 00:27:30;;;;;;;13.30;12.50;;;8.10;1.00;;;;;;4918565;29;20641;-78
2023/11/13 00:29:58;;;;;;;13.13;12.37;;;8.20;1.00;;;;;;4922059;29;20457;-77
2023/11/13 00:32:28;;;;;;;12.20;11.60;;;8.20;1.00;;;;;;4920757;29;21062;-77
2023/11/13 00:34:57;;;;;;;12.17;11.53;;;8.20;1.00;;;;;;4921864;29;20451;-76
2023/11/13 00:37:25;;;;;;;13.13;12.30;;;8.30;1.00;;;;;;4916656;29;20608;-79
2023/11/13 00:39:53;;;;;;;12.70;12.00;;;8.30;1.00;;;;;;4922967;29;20485;-78
2023/11/13 00:42:21;;;;;;;13.60;12.90;;;8.40;1.00;;;;;;4921779;29;20541;-80
2023/11/13 00:44:49;;;;;;;13.70;12.80;;;8.40;1.00;;;;;;4923780;28;20452;-79
2023/11/13 00:47:17;;;;;;;13.20;12.37;;;8.40;1.00;;;;;;4923366;29;20470;-79
2023/11/13 00:49:47;;;;;;;12.90;12.20;;;8.40;1.00;;;;;;4920259;29;20465;-81
2023/11/13 00:52:15;;;;;;;12.83;12.13;;;8.40;1.00;;;;;;4921920;29;20458;-79
2023/11/13 00:54:43;;;;;;;13.13;12.30;;;8.50;1.00;;;;;;4918049;29;20465;-77
2023/11/13 00:57:11;;;;;;;13.13;12.33;;;8.50;1.00;;;;;;4921445;29;20481;-77
2023/11/13 00:59:39;;;;;;;12.50;12.00;;;8.50;1.00;;;;;;4918922;29;20461;-78
2023/11/13 01:02:07;;;;;;;12.47;11.77;;;8.50;1.00;;;;;;4923071;29;20456;-78
2023/11/13 01:04:35;;;;;;;13.70;12.77;;;8.50;1.00;;;;;;4921633;29;20458;-77
2023/11/13 01:07:05;;;;;;;12.97;12.37;;;8.50;1.00;;;;;;4921034;29;21286;-78
2023/11/13 01:09:34;;;;;;;12.93;12.30;;;8.50;1.00;;;;;;4921312;29;21030;-79
2023/11/13 01:12:02;;;;;;;12.27;11.80;;;8.50;1.00;;;;;;4920003;29;21839;-78
2023/11/13 01:14:32;;;;;;;12.97;12.17;;;8.50;1.00;;;;;;4921609;29;20493;-79
2023/11/13 01:17:00;;;;;;;13.03;12.23;;;8.50;1.00;;;;;;4921568;29;20477;-77
2023/11/13 01:19:30;;;;;;;13.00;12.50;;;8.50;1.00;;;;;;4922257;29;20532;-79
2023/11/13 01:21:58;;;;;;;12.83;12.23;;;8.60;1.00;;;;;;4922044;29;20569;-80
2023/11/13 01:24:28;;;;;;;12.80;12.40;;;8.60;1.00;;;;;;4922798;29;20505;-80
2023/11/13 01:26:56;;;;;;;14.03;13.03;;;8.60;1.00;;;;;;4920791;29;20965;-78
2023/11/13 01:29:24;;;;;;;13.53;12.93;;;8.60;1.00;;;;;;4920244;29;20466;-79
2023/11/13 01:31:52;;;;;;;13.80;13.10;;;8.70;1.00;;;;;;4921811;29;20458;-78
2023/11/13 01:34:20;;;;;;;13.37;12.63;;;8.60;1.00;;;;;;4919547;29;20649;-81
2023/11/13 01:36:48;;;;;;;13.37;12.73;;;8.60;1.00;;;;;;4921119;29;20569;-79
2023/11/13 01:39:17;;;;;;;12.20;11.80;;;8.70;1.00;;;;;;4920797;29;20473;-79
2023/11/13 01:41:46;;;;;;;13.77;12.87;;;8.70;1.00;;;;;;4922443;28;20486;-80
2023/11/13 01:44:14;;;;;;;12.97;12.17;;;8.70;1.00;;;;;;4923451;29;20454;-80
2023/11/13 01:46:43;;;;;;;13.47;12.60;;;8.70;1.00;;;;;;4924094;29;21025;-79
2023/11/13 01:49:12;;;;;;;13.83;13.23;;;8.70;1.00;;;;;;4924567;29;20532;-79
2023/11/13 01:51:40;;;;;;;12.57;12.10;;;8.70;1.00;;;;;;4924495;29;21030;-79
2023/11/13 01:54:08;;;;;;;13.50;13.00;;;8.70;1.00;;;;;;4921937;29;20461;-77
2023/11/13 01:56:37;;;;;;;12.40;12.00;;;8.80;1.00;;;;;;4923540;29;20493;-78
2023/11/13 01:59:09;;;;;;;13.20;12.40;;;8.80;1.00;;;;;;4923064;29;20498;-80
2023/11/13 02:01:37;;;;;;;13.10;12.43;;;8.80;1.00;;;;;;4922035;29;20493;-77
2023/11/13 02:04:05;;;;;;;13.00;12.43;;;8.80;1.00;;;;;;4922731;29;20493;-79
2023/11/13 02:06:34;;;;;;;13.20;12.63;;;8.90;1.00;;;;;;4922915;29;20478;-78
2023/11/13 02:09:05;;;;;;;12.70;12.10;;;8.90;1.00;;;;;;4921666;29;20699;-80
2023/11/13 02:11:34;;;;;;;13.47;12.77;;;8.90;1.00;;;;;;4920580;29;23187;-79
2023/11/13 02:14:02;;;;;;;13.57;12.97;;;8.90;1.00;;;;;;4922466;29;20462;-80
2023/11/13 02:16:31;;;;;;;13.33;12.83;;;8.90;1.00;;;;;;4921602;29;20466;-79
2023/11/13 02:19:00;;;;;;;13.07;12.37;;;9.00;1.00;;;;;;4920871;29;20465;-78
2023/11/13 02:21:28;;;;;;;12.80;12.20;;;9.00;1.00;;;;;;4922319;29;20473;-77
2023/11/13 02:23:59;;;;;;;12.23;11.63;;;9.00;1.00;;;;;;4921219;29;20454;-80
2023/11/13 02:26:28;;;;;;;12.20;11.70;;;9.00;1.00;;;;;;4922037;29;20465;-78
2023/11/13 02:28:56;;;;;;;12.40;11.93;;;9.00;1.00;;;;;;4922730;29;20453;-78
2023/11/13 02:31:24;;;;;;;11.53;11.17;;;9.00;1.00;;;;;;4919612;29;20471;-79
2023/11/13 02:33:52;;;;;;;11.83;11.23;;;9.00;1.00;;;;;;4925066;29;20982;-78
2023/11/13 02:36:20;;;;;;;11.70;11.20;;;9.00;1.00;;;;;;4923508;29;20983;-80
2023/11/13 02:38:48;;;;;;;11.30;11.00;;;9.00;1.20;;;;;;4921345;29;20476;-78
2023/11/13 02:41:19;;;;;;;11.90;11.60;;;9.00;12.00;;;;;;4923509;29;20499;-78
2023/11/13 02:43:47;;;;;;;11.70;11.20;;;9.00;26.20;;;;;;4924575;29;20871;-78
2023/11/13 02:46:15;;;;;;;12.17;11.67;;;9.10;34.60;;;;;;4924152;29;20992;-80
2023/11/13 02:48:43;;;;;;;11.77;11.33;;;9.10;36.80;;;;;;4921467;29;20465;-79
2023/11/13 02:51:11;;;;;;;11.97;11.47;;;9.10;37.40;;;;;;4921546;29;20465;-78
2023/11/13 02:53:39;;;;;;;12.40;11.77;;;9.20;37.60;;;;;;4920566;29;20471;-79
2023/11/13 02:56:08;;;;;;;12.27;11.70;;;9.10;37.70;;;;;;4922960;29;20453;-78
2023/11/13 02:58:37;;;;;;;12.53;12.03;;;9.10;43.50;;;;;;4921777;29;20478;-79
2023/11/13 03:01:06;;;;;;;12.13;11.73;;;9.20;52.00;;;;;;4924703;29;20473;-80
2023/11/13 03:03:35;;;;;;;12.50;12.00;;;9.20;54.60;;;;;;4920963;29;20459;-78
2023/11/13 03:06:03;;;;;;;12.90;12.40;;;9.20;52.40;;;;;;4921942;29;21234;-80
2023/11/13 03:08:31;;;;;;;12.60;12.10;;;9.30;60.90;;;;;;4921888;29;20909;-81
2023/11/13 03:10:59;;;;;;;12.70;12.10;;;9.30;68.40;;;;;;4921328;29;20465;-78
2023/11/13 03:13:32;;;;;;;13.20;12.40;;;9.30;71.20;;;;;;4921654;29;20458;-80
2023/11/13 03:16:01;;;;;;;12.90;12.43;;;9.30;79.00;;;;;;4919976;29;20461;-78
2023/11/13 03:18:30;;;;;;;12.30;11.90;;;9.30;81.00;;;;;;4923039;29;20545;-79
2023/11/13 03:20:58;;;;;;;12.07;11.67;;;9.40;80.70;;;;;;4920749;29;20474;-79
2023/11/13 03:23:26;;;;;;;12.27;11.77;;;9.40;80.50;;;;;;4920416;29;20458;-79
2023/11/13 03:25:54;;;;;;;12.23;11.93;;;9.40;83.80;;;;;;4922631;28;20530;-79
2023/11/13 03:28:22;;;;;;;12.10;11.80;;;9.40;92.00;;;;;;4920529;29;20477;-79
2023/11/13 03:30:51;;;;;;;12.00;11.70;;;9.40;97.10;;;;;;4920412;29;20461;-78
2023/11/13 03:33:20;;;;;;;12.87;12.43;;;9.50;98.30;;;;;;4921404;29;20808;-78
2023/11/13 03:35:51;;;;;;;12.63;12.23;;;9.50;98.40;;;;;;4918758;29;20483;-78
2023/11/13 03:38:19;;;;;;;12.13;11.83;;;9.50;98.20;;;;;;4923074;29;20560;-79
2023/11/13 03:40:47;;;;;;;12.30;11.80;;;9.50;99.90;;;;;;4921688;29;20449;-78
2023/11/13 03:43:15;;;;;;;12.30;12.00;;;9.60;98.70;;;;;;4924066;29;20481;-78
2023/11/13 03:45:44;;;;;;;12.67;12.07;;;9.60;99.90;;;;;;4922086;29;20465;-79
2023/11/13 03:48:12;;;;;;;12.00;11.70;;;9.60;99.90;;;;;;4920652;29;20490;-78
2023/11/13 03:50:41;;;;;;;12.70;12.20;;;9.70;99.40;;;;;;4925104;29;20462;-80
2023/11/13 03:53:10;;;;;;;12.43;12.10;;;9.70;99.90;;;;;;4922444;29;20449;-79
2023/11/13 03:55:38;;;;;;;12.90;12.37;;;9.70;99.90;;;;;;4921273;29;20465;-78
2023/11/13 03:58:06;;;;;;;12.80;12.40;;;9.70;99.90;;;;;;4923083;29;20890;-79
2023/11/13 04:00:34;;;;;;;12.57;12.20;;;9.70;99.90;;;;;;4922713;29;20521;-80
2023/11/13 04:03:03;;;;;;;12.90;12.33;;;9.70;99.60;;;;;;4922685;29;20572;-80
2023/11/13 04:05:31;;;;;;;12.93;12.60;;;9.80;98.60;;;;;;4919329;29;21453;-79
2023/11/13 04:08:00;;;;;;;12.90;12.50;;;9.80;99.70;;;;;;4917647;29;20489;-77
2023/11/13 04:10:30;;;;;;;12.83;12.47;;;9.80;99.90;;;;;;4923905;29;20533;-78
2023/11/13 04:12:58;;;;;;;13.40;13.00;;;9.80;99.90;;;;;;4922137;29;20521;-78
2023/11/13 04:15:26;;;;;;;13.37;13.07;;;9.80;99.90;;;;;;4923828;29;20457;-78
2023/11/13 04:17:55;;;;;;;13.47;13.00;;;9.90;99.90;;;;;;4921690;29;20482;-78
2023/11/13 04:20:24;;;;;;;12.80;12.50;;;9.90;99.90;;;;;;4919348;29;20548;-82
2023/11/13 04:22:54;;;;;;;13.83;13.33;;;9.90;99.90;;;;;;4924739;29;20469;-79
2023/11/13 04:25:24;;;;;;;13.53;13.13;;;9.90;98.90;;;;;;4919221;29;20453;-78
2023/11/13 04:27:52;;;;;;;13.97;13.57;;;10.00;99.90;;;;;;4922477;29;20553;-78
2023/11/13 04:30:20;;;;;;;14.57;13.97;;;10.00;97.50;;;;;;4921120;29;20583;-79
2023/11/13 04:32:48;;;;;;;14.23;13.60;;;10.00;97.00;;;;;;4923620;29;20529;-78
2023/11/13 04:35:18;;;;;;;14.30;13.70;;;10.00;93.90;;;;;;4923581;29;20449;-79
2023/11/13 04:37:46;;;;;;;15.43;14.80;;;10.00;94.80;;;;;;4922156;29;20490;-79
2023/11/13 04:40:14;;;;;;;14.20;13.70;;;10.00;92.50;;;;;;4921847;29;20480;-80
2023/11/13 04:42:44;;;;;;;14.07;13.63;;;10.00;87.90;;;;;;4919167;29;20484;-79
2023/11/13 04:45:12;;;;;;;14.33;13.90;;;10.10;86.70;;;;;;4918283;29;20474;-80
2023/11/13 04:47:40;;;;;;;14.33;13.83;;;10.10;73.80;;;;;;4920860;29;20492;-78
2023/11/13 04:50:09;;;;;;;14.83;14.03;;;10.00;66.50;;;;;;4923433;29;20461;-79
2023/11/13 04:52:37;;;;;;;14.17;13.57;;;10.00;71.90;;;;;;4921449;29;20457;-79
2023/11/13 04:55:06;;;;;;;15.23;14.43;;;10.00;74.30;;;;;;4921150;29;20456;-78
2023/11/13 04:57:35;;;;;;;14.07;13.67;;;10.00;64.30;;;;;;4919297;29;20569;-79
2023/11/13 05:00:06;;;;;;;14.40;13.90;;;10.00;56.70;;;;;;4917563;29;20461;-80
2023/11/13 05:02:36;;;;;;;14.77;13.97;;;10.00;52.70;;;;;;4917099;29;20492;-81
2023/11/13 05:05:07;;;;;;;15.13;14.33;;;10.00;40.70;;;;;;4920079;29;20464;-79
2023/11/13 05:07:35;;;;;;;15.10;14.47;;;10.00;37.60;;;;;;4918333;29;21010;-80
2023/11/13 05:10:05;;;;;;;14.47;13.83;;;10.00;31.90;;;;;;4920208;29;20454;-79
2023/11/13 05:12:34;;;;;;;15.90;14.90;;;10.00;24.00;;;;;;4917594;29;20468;-77
2023/11/13 05:15:02;;;;;;;16.13;14.90;;;10.00;8.50;;;;;;4919690;29;21114;-79
2023/11/13 05:17:36;;;;;;;15.33;14.57;;;10.10;11.20;;;;;;4920465;29;20591;-81
2023/11/13 05:20:06;;;;;;;15.47;14.33;;;10.10;8.80;;;;;;4921058;29;20455;-79
2023/11/13 05:22:35;;;;;;;15.77;14.93;;;10.10;10.00;;;;;;4923437;29;20481;-79
2023/11/13 05:25:03;;;;;;;15.50;14.40;;;10.10;10.30;;;;;;4919529;29;20560;-78
2023/11/13 05:27:32;;;;;;;15.97;14.97;;;10.20;2.40;;;;;;4925379;29;20495;-78
2023/11/13 05:30:00;;;;;;;16.63;15.83;;;10.20;1.00;;;;;;4922837;29;20476;-79
2023/11/13 05:32:28;;;;;;;15.70;15.00;;;10.20;1.00;;;;;;4920202;29;20874;-79
2023/11/13 05:34:58;;;;;;;15.63;14.67;;;10.20;1.00;;;;;;4924272;29;20468;-78
2023/11/13 05:37:26;;;;;;;16.57;15.23;;;10.20;1.00;;;;;;4925252;29;20489;-79
2023/11/13 05:39:55;;;;;;;15.67;14.53;;;10.20;1.00;;;;;;4924728;29;20572;-79
2023/11/13 05:42:24;;;;;;;16.60;15.70;;;10.20;1.00;;;;;;4923115;29;20967;-80
2023/11/13 05:44:52;;;;;;;15.53;14.40;;;10.30;1.00;;;;;;4920956;29;20454;-80
2023/11/13 05:47:20;;;;;;;16.80;15.47;;;10.20;1.00;;;;;;4922211;29;20473;-78
2023/11/13 05:49:48;;;;;;;16.87;15.80;;;10.30;1.00;;;;;;4921266;29;20452;-78
2023/11/13 05:52:18;;;;;;;16.93;15.37;;;10.30;1.00;;;;;;4923311;29;20553;-79
2023/11/13 05:54:46;;;;;;;18.17;16.27;;;10.30;1.00;;;;;;4922971;29;20446;-79
2023/11/13 05:57:14;;;;;;;16.10;14.90;;;10.30;1.00;;;;;;4925566;29;20531;-80
2023/11/13 05:59:43;;;;;;;16.10;15.00;;;10.30;1.00;;;;;;4922726;29;20460;-79
2023/11/13 06:02:11;;;;;;;16.30;15.00;;;10.30;1.00;;;;;;4916181;29;20461;-79
2023/11/13 06:04:43;;;;;;;17.00;15.67;;;10.30;1.00;;;;;;4923746;29;20503;-78
2023/11/13 06:07:11;;;;;;;16.13;15.00;;;10.30;1.00;;;;;;4918504;29;20501;-79
2023/11/13 06:09:42;;;;;;;16.77;15.47;;;10.30;1.00;;;;;;4925518;29;20565;-78
2023/11/13 06:12:10;;;;;;;16.27;15.33;;;10.30;1.00;;;;;;4925587;29;20513;-79
2023/11/13 06:14:39;;;;;;;17.00;15.67;;;10.30;1.00;;;;;;4921990;29;20453;-80
2023/11/13 06:17:08;;;;;;;16.93;15.80;;;10.30;1.00;;;;;;4923567;29;20481;-77
2023/11/13 06:19:37;;;;;;;17.27;16.00;;;10.30;1.00;;;;;;4923587;29;20461;-78
2023/11/13 06:22:05;;;;;;;17.43;16.10;;;10.30;1.00;;;;;;4922998;29;20469;-80
2023/11/13 06:24:33;;;;;;;17.40;16.07;;;10.30;1.00;;;;;;4919079;29;20569;-81
2023/11/13 06:27:03;;;;;;;16.90;15.30;;;10.40;1.00;;;;;;4926284;29;20484;-80
2023/11/13 06:29:32;;;;;;;16.77;15.40;;;10.30;1.00;;;;;;4922763;29;21045;-79
2023/11/13 06:32:01;;;;;;;16.27;15.43;;;10.40;1.00;;;;;;4921648;29;20461;-79
2023/11/13 06:34:30;;;;;;;17.43;15.73;;;10.40;1.00;;;;;;4924679;29;20449;-80
2023/11/13 06:36:58;;;;;;;17.20;15.90;;;10.40;1.00;;;;;;4923578;29;20485;-78
2023/11/13 06:39:26;;;;;;;16.27;15.37;;;10.40;1.00;;;;;;4924977;29;20475;-79
2023/11/13 06:41:54;;;;;;;16.07;15.27;;;10.40;1.00;;;;;;4920566;29;20462;-80
2023/11/13 06:44:24;;;;;;;17.27;16.03;;;10.30;1.00;;;;;;4925546;29;20484;-78
2023/11/13 06:46:52;;;;;;;16.33;15.23;;;10.40;1.00;;;;;;4926147;29;20521;-79
2023/11/13 06:49:21;;;;;;;17.03;15.40;;;10.40;1.00;;;;;;4922568;29;21050;-79
2023/11/13 06:51:50;;;;;;;17.90;16.40;;;10.40;1.00;;;;;;4926807;29;20471;-78
2023/11/13 06:54:18;;;;;;;17.10;15.80;;;10.40;1.00;;;;;;4922477;29;20449;-82
2023/11/13 06:56:46;;;;;;;17.10;15.90;;;10.40;1.00;;;;;;4924973;29;20529;-80
2023/11/13 06:59:15;;;;;;;16.07;14.57;;;10.40;1.00;;;;;;4925938;29;20461;-79
2023/11/13 07:01:45;;;;;;;17.43;16.53;;;10.40;1.00;;;;;;4924810;29;20464;-78
2023/11/13 07:04:14;;;;;;;15.63;14.97;;;10.40;1.00;;;;;;4925950;29;20500;-79
2023/11/13 07:06:44;;;;;;;16.03;15.13;;;10.40;1.00;;;;;;4922820;29;20577;-79
2023/11/13 07:09:12;;;;;;;15.63;14.67;;;10.50;1.00;;;;;;4923708;29;20461;-78
2023/11/13 07:11:42;;;;;;;15.33;14.53;;;10.40;1.00;;;;;;4922851;29;20462;-79
2023/11/13 07:14:11;;;;;;;15.37;14.70;;;10.40;1.00;;;;;;4920241;29;20467;-80
2023/11/13 07:16:41;;;;;;;16.53;15.33;;;10.40;1.00;;;;;;4926227;29;20549;-77
2023/11/13 07:19:14;;;;;;;16.10;15.10;;;10.40;1.00;;;;;;4927722;29;20453;-81
2023/11/13 07:21:42;;;;;;;15.83;14.93;;;10.40;1.00;;;;;;4924319;29;20454;-78
2023/11/13 07:24:12;;;;;;;16.07;15.27;;;10.50;1.00;;;;;;4922567;29;20484;-78
2023/11/13 07:26:40;;;;;;;16.80;15.80;;;10.50;1.00;;;;;;4923214;29;21245;-78
2023/11/13 07:29:09;;;;;;;15.57;14.87;;;10.50;1.00;;;;;;4924443;29;20473;-80
2023/11/13 07:31:38;;;;;;;15.63;14.80;;;10.50;1.00;;;;;;4925380;29;21010;-78
2023/11/13 07:34:10;;;;;;;15.77;14.87;;;10.50;1.00;;;;;;4929322;29;20461;-80
2023/11/13 07:36:40;;;;;;;15.40;14.47;;;10.50;1.00;;;;;;4921696;29;20545;-77
2023/11/13 07:39:09;;;;;;;15.50;14.70;;;10.40;1.00;;;;;;4924341;29;20465;-79
2023/11/13 07:41:37;;;;;;;16.00;15.10;;;10.40;1.00;;;;;;4922575;29;20460;-83
2023/11/13 07:44:06;;;;;;;15.50;14.40;;;10.50;1.00;;;;;;4917808;29;20489;-79
2023/11/13 07:46:35;;;;;;;16.30;15.40;;;10.50;1.00;;;;;;4922936;29;20461;-77
2023/11/13 07:49:03;;;;;;;15.33;14.53;;;10.40;1.00;;;;;;4923240;29;20544;-77
2023/11/13 07:51:32;;;;;;;15.17;14.37;;;10.40;1.00;;;;;;4922136;29;20560;-80
2023/11/13 07:54:04;;;;;;;16.60;15.40;;;10.40;1.00;;;;;;4920714;29;20459;-79
2023/11/13 07:56:32;;;;;;;16.13;15.00;;;10.40;1.00;;;;;;4924370;29;20450;-78
2023/11/13 07:59:05;;;;;;;14.87;14.33;;;10.40;1.00;;;;;;4924701;29;20441;-78
2023/11/13 08:01:33;;;;;;;15.53;14.73;;;10.40;1.00;;;;;;4918869;29;20472;-79
2023/11/13 08:04:01;;;;;;;15.00;14.40;;;10.30;1.00;;;;;;4924799;29;20466;-77
2023/11/13 08:06:29;;;;;;;16.90;15.90;;;10.20;1.00;;;;;;4923030;29;21138;-77
2023/11/13 08:08:59;;;;;;;15.03;14.40;;;10.20;1.00;;;;;;4917887;29;20557;-79
2023/11/13 08:11:28;;;;;;;14.70;14.30;;;10.20;1.00;;;;;;4921837;29;20463;-79
2023/11/13 08:13:56;;;;;;;15.13;14.53;;;10.20;1.00;;;;;;4920957;29;22360;-79
2023/11/13 08:16:27;;;;;;;15.57;14.87;;;10.30;1.00;;;;;;4918334;29;20455;-79
2023/11/13 08:18:56;;;;;;;15.37;14.30;;;10.30;1.00;;;;;;4924183;29;21046;-78
2023/11/13 08:21:28;;;;;;;15.50;14.70;;;10.30;1.00;;;;;;4920375;29;20998;-78
2023/11/13 08:23:56;;;;;;;15.10;14.40;;;10.20;1.00;;;;;;4922336;29;20458;-78
2023/11/13 08:26:29;;;;;;;15.20;14.30;;;10.30;1.00;;;;;;4923945;29;20458;-82
2023/11/13 08:28:58;;;;;;;14.50;13.90;;;10.30;1.00;;;;;;4923815;29;20858;-77
2023/11/13 08:31:26;;;;;;;15.70;14.57;;;10.30;1.00;;;;;;4919665;29;20498;-78
2023/11/13 08:33:55;;;;;;;14.80;14.40;;;10.30;1.00;;;;;;4922600;29;20450;-78
2023/11/13 08:36:23;;;;;;;15.30;14.70;;;10.30;1.00;;;;;;4923176;29;21064;-79
2023/11/13 08:38:52;;;;;;;17.20;15.90;;;10.30;1.00;;;;;;4920750;29;20962;-79
2023/11/13 08:41:21;;;;;;;15.50;14.40;;;10.30;1.00;;;;;;4921282;29;20458;-77
2023/11/13 08:43:52;;;;;;;14.83;14.13;;;10.30;1.00;;;;;;4921326;29;21123;-79
2023/11/13 08:46:21;;;;;;;14.80;14.20;;;10.30;1.00;;;;;;4925101;29;20484;-78
2023/11/13 08:48:50;;;;;;;14.60;14.10;;;10.30;1.00;;;;;;4924100;29;20469;-78
2023/11/13 08:51:19;;;;;;;14.67;14.10;;;10.40;1.00;;;;;;4925208;29;20465;-78
2023/11/13 08:53:47;;;;;;;14.33;13.83;;;10.40;1.00;;;;;;4932768;29;20465;-80
2023/11/13 08:56:15;;;;;;;14.63;14.07;;;10.40;1.00;;;;;;4926475;29;20458;-78
2023/11/13 08:58:47;;;;;;;14.87;14.20;;;10.40;1.00;;;;;;4927432;29;20803;-78
2023/11/13 09:01:19;;;;;;;14.90;14.30;;;10.40;1.00;;;;;;4927238;29;20464;-78
2023/11/13 09:03:48;;;;;;;14.60;14.20;;;10.30;1.00;;;;;;4929048;29;20466;-78
2023/11/13 09:06:17;;;;;;;15.20;14.70;;;10.30;1.00;;;;;;4926575;29;20509;-79
2023/11/13 09:08:48;;;;;;;14.67;14.00;;;10.30;1.00;;;;;;4930037;29;20465;-81
2023/11/13 09:11:17;;;;;;;14.93;14.03;;;10.30;1.00;;;;;;4934075;29;20493;-82
2023/11/13 09:13:46;;;;;;;15.00;14.30;;;10.30;4.60;;;;;;4927180;29;20551;-78
2023/11/13 09:16:19;;;;;;;16.20;15.50;;;10.30;13.40;;;;;;4924504;29;20830;-78
2023/11/13 09:18:48;;;;;;;15.10;14.60;;;10.40;16.00;;;;;;4929548;29;20520;-78
2023/11/13 09:21:18;;;;;;;15.40;14.80;;;10.40;17.20;;;;;;4926643;29;20452;-79
2023/11/13 09:23:46;;;;;;;15.03;14.53;;;10.50;18.50;;;;;;4930306;29;20466;-78
2023/11/13 09:26:15;;;;;;;14.90;14.40;;;10.50;26.70;;;;;;4921420;29;20508;-80
2023/11/13 09:28:43;;;;;;;15.37;14.77;;;10.60;24.10;;;;;;4920761;29;20493;-78
2023/11/13 09:31:11;;;;;;;16.87;16.07;;;10.60;22.80;;;;;;4923344;29;20857;-78
2023/11/13 09:33:41;;;;;;;17.47;16.57;;;10.60;26.90;;;;;;4924946;29;20458;-78
2023/11/13 09:36:09;;;;;;;16.07;15.47;;;10.60;39.50;;;;;;4921841;29;20853;-80
2023/11/13 09:38:37;;;;;;;16.30;15.60;;;10.60;50.40;;;;;;4926102;29;20485;-80
2023/11/13 09:41:05;;;;;;;15.80;15.30;;;10.60;59.90;;;;;;4922623;29;20470;-79
2023/11/13 09:43:34;;;;;;;16.70;16.00;;;10.80;67.00;;;;;;4925176;29;20450;-79
2023/11/13 09:46:06;;;;;;;16.53;15.83;;;10.80;66.20;;;;;;4925924;29;20571;-78
2023/11/13 09:48:43;;;;;;;15.43;14.83;;;10.80;80.00;;;;;;4922979;29;21027;-79
2023/11/13 09:51:15;;;;;;;16.03;15.40;;;10.90;93.10;;;;;;4923790;29;20453;-78
2023/11/13 09:53:58;;;;;;;16.37;15.60;;;10.90;99.90;;;;;;4925606;29;20615;-78
2023/11/13 09:56:29;;;;;;;15.70;15.17;;;11.00;99.90;;;;;;4925085;29;20892;-79
2023/11/13 09:59:02;;;;;;;15.60;15.10;;;11.00;99.90;;;;;;4922278;29;21063;-77
2023/11/13 10:01:31;;;;;;;17.50;16.80;;;11.00;99.90;;;;;;4928226;29;20995;-78
2023/11/13 10:04:01;;;;;;;15.93;15.40;;;11.10;99.90;;;;;;4924119;29;20457;-80
2023/11/13 10:06:31;;;;;;;16.10;15.50;;;11.10;99.90;;;;;;4922833;29;20676;-80
2023/11/13 10:08:59;;;;;;;15.80;15.20;;;11.10;99.90;;;;;;4926978;29;21201;-80
2023/11/13 10:11:29;;;;;;;16.20;15.50;;;11.20;99.90;;;;;;4925385;29;20542;-78
2023/11/13 10:14:13;;;;;;;16.63;15.73;;;11.20;99.90;;;;;;4928808;28;20457;-79
2023/11/13 10:16:44;;;;;;;19.37;18.03;;;11.20;99.90;;;;;;4924404;29;20509;-81
2023/11/13 10:19:16;;;;;;;16.20;15.60;;;11.20;99.90;;;;;;4922689;29;20450;-78
2023/11/13 10:21:45;;;;;;;16.80;16.00;;;11.20;99.90;;;;;;4924827;29;20458;-79
2023/11/13 10:24:16;;;;;;;16.70;15.90;;;11.30;99.90;;;;;;4920978;29;21076;-78
2023/11/13 10:26:58;;;;;;;16.80;16.10;;;11.30;99.90;;;;;;4925826;29;20493;-81
2023/11/13 10:29:30;;;;;;;17.50;16.40;;;11.40;99.90;;;;;;4927038;29;20982;-79
2023/11/13 10:31:58;;;;;;;16.77;16.07;;;11.40;99.90;;;;;;4925660;29;20462;-78
2023/11/13 10:34:41;;;;;;;17.10;16.20;;;11.40;99.90;;;;;;4925854;29;21007;-78
2023/11/13 10:37:13;;;;;;;16.20;15.60;;;11.40;99.90;;;;;;4925637;29;20970;-80
2023/11/13 10:39:42;;;;;;;17.30;16.30;;;11.50;99.90;;;;;;4925539;29;20474;-78
2023/11/13 10:42:18;;;;;;;17.80;16.90;;;11.50;99.90;;;;;;4926982;29;20831;-78
2023/11/13 10:44:46;;;;;;;17.23;16.33;;;11.50;99.90;;;;;;4922390;29;20468;-80
2023/11/13 10:47:23;;;;;;;17.43;16.73;;;11.50;99.90;;;;;;4924522;29;20590;-77
2023/11/13 10:49:54;;;;;;;17.63;16.70;;;11.50;99.90;;;;;;4925980;29;20854;-79
2023/11/13 10:52:24;;;;;;;17.17;16.37;;;11.50;99.90;;;;;;4926555;29;20494;-77
2023/11/13 10:54:54;;;;;;;17.50;16.47;;;11.60;99.90;;;;;;4922328;29;20490;-78
2023/11/13 10:57:25;;;;;;;17.80;16.90;;;11.60;99.90;;;;;;4922249;29;20556;-79
2023/11/13 10:59:55;;;;;;;18.07;17.13;;;11.60;99.90;;;;;;4923820;29;20469;-79
2023/11/13 11:02:30;;;;;;;19.40;18.50;;;11.60;99.90;;;;;;4926343;29;21036;-80
2023/11/13 11:05:02;;;;;;;18.13;17.20;;;11.70;99.90;;;;;;4924463;29;20464;-78
2023/11/13 11:07:32;;;;;;;16.97;16.27;;;11.60;99.90;;;;;;4927040;29;20853;-79
2023/11/13 11:10:04;;;;;;;17.73;16.73;;;11.60;99.90;;;;;;4924675;29;20468;-79
2023/11/13 11:12:37;;;;;;;18.30;17.20;;;11.70;99.90;;;;;;4926018;29;20702;-78
2023/11/13 11:15:34;;;;;;;18.50;17.60;;;11.60;99.90;;;;;;4925648;29;20506;-81
2023/11/13 11:18:11;;;;;;;18.10;17.00;;;11.70;99.90;;;;;;4926026;29;20884;-78
2023/11/13 11:20:48;;;;;;;17.17;16.30;;;11.70;99.90;;;;;;4922563;29;21034;-80
2023/11/13 11:23:21;;;;;;;18.37;17.47;;;11.70;99.90;;;;;;4927503;29;20462;-79
2023/11/13 11:25:51;;;;;;;18.07;17.17;;;11.70;99.90;;;;;;4925215;29;20481;-79
2023/11/13 11:28:41;;;;;;;18.97;17.60;;;11.80;99.90;;;;;;4923036;29;20486;-79
2023/11/13 11:31:49;;;;;;;17.30;16.50;;;11.80;99.90;;;;;;4925796;29;20457;-78
2023/11/13 11:34:22;;;;;;;18.43;17.67;;;11.90;99.90;;;;;;4922779;29;20458;-78
2023/11/13 11:37:01;;;;;;;18.17;17.33;;;11.80;99.90;;;;;;4926113;29;20469;-79
2023/11/13 11:39:45;;;;;;;19.33;18.03;;;11.90;99.90;;;;;;4921978;29;20453;-76
2023/11/13 11:42:20;;;;;;;18.67;17.60;;;11.90;99.90;;;;;;4924744;29;20544;-79
2023/11/13 11:45:01;;;;;;;18.77;17.67;;;11.90;99.90;;;;;;4921613;29;20476;-79
2023/11/13 11:47:30;;;;;;;18.47;17.67;;;11.90;99.90;;;;;;4921362;29;20478;-80
2023/11/13 11:49:59;;;;;;;19.07;17.97;;;12.00;99.90;;;;;;4925408;29;20453;-78
2023/11/13 11:52:51;;;;;;;18.20;17.37;;;11.90;99.90;;;;;;4923722;29;20917;-78
2023/11/13 11:55:22;;;;;;;18.30;17.10;;;11.90;99.90;;;;;;4923227;29;20457;-79
2023/11/13 11:57:51;;;;;;;19.00;17.60;;;11.90;99.90;;;;;;4924569;29;20477;-79
2023/11/13 12:00:21;;;;;;;18.83;17.83;;;12.00;99.90;;;;;;4922728;29;20460;-79
2023/11/13 12:02:51;;;;;;;18.47;17.60;;;12.00;99.90;;;;;;4922797;29;20469;-77
2023/11/13 12:05:20;;;;;;;18.07;17.37;;;12.10;99.90;;;;;;4924840;29;20971;-79
2023/11/13 12:07:50;;;;;;;18.20;17.50;;;12.00;99.90;;;;;;4921085;29;20486;-79
2023/11/13 12:10:20;;;;;;;19.33;18.20;;;12.10;99.90;;;;;;4921246;29;20901;-79
2023/11/13 12:12:51;;;;;;;18.60;17.57;;;12.10;99.90;;;;;;4922293;29;20442;-78
2023/11/13 12:15:21;;;;;;;19.23;18.17;;;12.10;99.90;;;;;;4921845;29;20509;-80
2023/11/13 12:17:49;;;;;;;18.77;17.67;;;12.10;99.90;;;;;;4922154;29;22430;-79
2023/11/13 12:20:17;;;;;;;18.87;18.00;;;12.20;99.90;;;;;;4922994;29;20567;-81
2023/11/13 12:22:51;;;;;;;18.57;17.77;;;12.10;99.90;;;;;;4915961;29;20470;-81
2023/11/13 12:25:19;;;;;;;19.00;18.10;;;12.20;99.90;;;;;;4922334;29;20442;-78
2023/11/13 12:27:48;;;;;;;20.57;19.47;;;12.10;99.90;;;;;;4922443;29;20503;-79
2023/11/13 12:30:20;;;;;;;18.93;17.90;;;12.20;99.90;;;;;;4920604;29;20449;-80
2023/11/13 12:32:50;;;;;;;19.57;18.43;;;12.20;99.90;;;;;;4924515;29;20449;-79
2023/11/13 12:35:20;;;;;;;19.63;18.63;;;12.20;99.90;;;;;;4924605;29;20450;-79
2023/11/13 12:37:49;;;;;;;18.10;17.40;;;12.20;99.90;;;;;;4924235;29;20481;-80
2023/11/13 12:40:20;;;;;;;18.50;17.80;;;12.20;99.90;;;;;;4923483;29;20966;-81
2023/11/13 12:42:49;;;;;;;18.33;17.73;;;12.20;99.90;;;;;;4923155;29;20458;-79
2023/11/13 12:45:20;;;;;;;19.23;18.27;;;12.20;99.90;;;;;;4917049;29;20552;-78
2023/11/13 12:47:49;;;;;;;19.40;18.20;;;12.20;99.90;;;;;;4918141;29;20501;-78